Adams Ranch #1

Dec. 17, 2019, 4 p.m.

  • imperial
Air Temperature RH Wind Speed Wind Direction Precipitation Solar Radiation
Date Time Max Min Mean Max Min Max Mean Mean Total Total
US/Mountain F F F % % MPH MPH deg. in. MJ/m^2
2019-12-16 16:00 35.78 33.8 35.06 25.0 20.0 17.9 10.8 45.0 0.0 0.797
2019-12-16 17:00 33.8 29.12 32.0 26.0 20.0 14.9 8.21 46.0 0.0 0.173
2019-12-16 18:00 29.12 25.34 27.86 31.0 26.0 11.5 4.09 45.0 0.0 0.001
2019-12-16 19:00 25.52 23.9 25.16 37.0 31.0 7.29 3.6 40.0 0.0 0.0
2019-12-16 20:00 23.9 20.48 22.46 46.0 37.0 6.6 3.49 48.0 0.0 0.0
2019-12-16 21:00 21.38 17.6 20.84 59.0 46.0 5.5 2.91 44.0 0.0 0.0
2019-12-16 22:00 17.6 15.44 16.52 69.0 58.0 5.39 3.11 47.0 0.0 0.0
2019-12-16 23:00 17.06 13.46 15.8 72.0 68.0 4.81 3.0 46.0 0.0 0.0
2019-12-17 00:00 14.0 12.2 13.1 75.0 70.0 4.9 3.4 48.0 0.0 0.0
2019-12-17 01:00 13.1 10.4 11.84 84.0 75.0 5.39 4.0 47.0 0.0 0.0
2019-12-17 02:00 13.1 11.12 12.56 86.0 83.0 5.5 4.09 51.0 0.0 0.0
2019-12-17 03:00 13.82 10.94 11.48 88.0 86.0 6.2 4.21 50.0 0.0 0.0
2019-12-17 04:00 13.82 11.12 12.56 87.0 84.0 7.09 4.61 51.0 0.0 0.0
2019-12-17 05:00 14.0 11.12 12.02 87.0 84.0 8.5 5.19 52.0 0.0 0.0
2019-12-17 06:00 14.0 13.28 13.82 84.0 79.0 9.4 6.0 53.0 0.0 0.0
2019-12-17 07:00 14.0 13.46 13.64 80.0 79.0 9.6 6.2 55.0 0.0 0.003
2019-12-17 08:00 20.66 13.46 15.8 80.0 74.0 10.89 6.8 57.0 0.0 0.216
2019-12-17 09:00 26.6 20.66 23.18 74.0 49.0 13.31 8.3 52.0 0.0 0.851
2019-12-17 10:00 29.66 26.6 27.5 49.0 37.0 15.3 9.31 51.0 0.0 1.408
2019-12-17 11:00 31.64 29.66 30.74 37.0 33.0 15.59 9.51 47.0 0.0 1.818
2019-12-17 12:00 34.52 31.46 33.08 35.0 27.0 14.7 8.7 48.0 0.0 2.029
2019-12-17 13:00 35.06 34.34 34.7 27.0 25.0 16.8 9.91 49.0 0.0 2.023
2019-12-17 14:00 37.04 35.06 35.78 26.0 24.0 16.8 9.91 46.0 0.0 1.8
2019-12-17 15:00 37.76 37.04 37.4 24.0 22.0 15.39 9.51 46.0 0.0 1.384
2019-12-17 16:00 37.58 35.78 37.04 24.0 15.0 13.89 9.1 47.0 0.0 0.813

Data is presented as is, with no certification of correctness. DO NOT USE IN LEGAL PROCEEDINGS.